createdAt,value
2022-11-18T06:04:04.202Z,10.40
2022-11-18T06:09:09.651Z,10.30
2022-11-18T06:14:18.608Z,10.30
2022-11-18T06:19:24.403Z,10.30
2022-11-18T06:24:27.994Z,10.40
2022-11-18T06:29:32.175Z,10.30
2022-11-18T06:34:41.452Z,10.30
2022-11-18T06:39:45.661Z,10.30
2022-11-18T06:44:49.266Z,10.30
2022-11-18T06:49:54.216Z,10.30
2022-11-18T06:54:57.797Z,10.20
2022-11-18T07:00:02.615Z,10.20
2022-11-18T07:05:08.296Z,10.20
2022-11-18T07:10:11.907Z,10.20
2022-11-18T07:15:15.647Z,10.10
2022-11-18T07:20:20.843Z,10.10
2022-11-18T07:25:24.507Z,10.00
2022-11-18T07:30:28.117Z,10.00
2022-11-18T07:35:33.940Z,10.00
2022-11-18T07:40:37.680Z,10.00
2022-11-18T07:45:41.378Z,10.00
2022-11-18T07:50:47.366Z,10.00
2022-11-18T07:55:51.038Z,10.00
2022-11-18T08:00:54.884Z,10.00
2022-11-18T08:06:02.117Z,10.10
2022-11-18T08:11:08.469Z,10.10
2022-11-18T08:16:15.509Z,10.30
2022-11-18T08:21:22.328Z,10.40
2022-11-18T08:26:26.985Z,10.50
2022-11-18T08:31:32.249Z,10.60
2022-11-18T08:36:38.989Z,10.70
2022-11-18T08:41:44.697Z,10.90
2022-11-18T08:46:48.368Z,11.10
2022-11-18T08:51:53.638Z,11.30
2022-11-18T08:56:57.740Z,11.60
2022-11-18T09:02:01.739Z,11.90
2022-11-18T09:07:07.488Z,12.10
2022-11-18T09:12:14.730Z,12.40
2022-11-18T09:17:18.359Z,12.60
2022-11-18T09:22:23.252Z,12.90
2022-11-18T09:27:26.844Z,13.00
2022-11-18T09:32:30.483Z,13.30
2022-11-18T09:37:35.970Z,13.50
2022-11-18T09:42:56.092Z,13.90
2022-11-18T09:48:03.036Z,14.20
2022-11-18T09:53:18.987Z,14.50
2022-11-18T09:58:36.887Z,14.80
2022-11-18T10:03:41.335Z,15.10
2022-11-18T10:08:48.240Z,15.50
2022-11-18T10:14:02.384Z,15.80
2022-11-18T10:19:18.109Z,16.20
2022-11-18T10:24:26.014Z,16.60
2022-11-18T10:29:29.597Z,17.10
2022-11-18T10:34:34.138Z,17.40
2022-11-18T10:39:52.060Z,17.60
2022-11-18T10:44:55.766Z,17.70
2022-11-18T10:50:01.166Z,18.00
2022-11-18T10:55:20.943Z,18.30
2022-11-18T11:00:50.316Z,18.60
2022-11-18T11:06:32.254Z,19.70
2022-11-18T11:11:40.167Z,19.00
2022-11-18T11:16:49.621Z,19.20
2022-11-18T11:21:53.436Z,19.50
2022-11-18T11:33:01.593Z,19.60
2022-11-18T11:38:15.261Z,19.80
2022-11-18T11:43:30.301Z,19.90
2022-11-18T11:48:45.791Z,20.00
2022-11-18T11:54:07.247Z,20.10
2022-11-18T11:59:20.771Z,20.30
2022-11-18T12:04:35.889Z,20.40
2022-11-18T12:09:53.037Z,20.30
2022-11-18T12:15:02.442Z,20.40
2022-11-18T12:20:37.129Z,20.40
2022-11-18T12:26:02.010Z,20.30
2022-11-18T12:31:23.673Z,20.40
2022-11-18T12:36:30.861Z,20.50
2022-11-18T12:42:11.623Z,20.50
2022-11-18T12:47:16.147Z,20.50
2022-11-18T12:52:37.411Z,20.30
2022-11-18T12:57:42.784Z,20.30
2022-11-18T13:02:53.179Z,20.30
2022-11-18T13:08:16.000Z,20.30
2022-11-18T13:13:27.182Z,20.40
2022-11-18T13:18:30.826Z,20.40
2022-11-18T13:23:56.202Z,20.40
2022-11-18T13:29:32.597Z,20.50
2022-11-18T13:34:44.425Z,20.40
2022-11-18T13:39:49.543Z,20.00
2022-11-18T13:44:56.556Z,19.50
2022-11-18T13:50:07.486Z,18.70
2022-11-18T13:55:19.727Z,18.30
2022-11-18T14:00:28.146Z,17.90
2022-11-18T14:05:32.249Z,18.00
2022-11-18T14:10:42.227Z,18.00
2022-11-18T14:15:47.471Z,17.90
2022-11-18T14:20:52.875Z,17.20
2022-11-18T14:25:57.372Z,16.60
2022-11-18T14:31:03.901Z,16.20
2022-11-18T14:36:13.086Z,15.90
2022-11-18T14:41:43.637Z,15.70
2022-11-18T14:46:52.319Z,15.40
2022-11-18T14:51:56.510Z,15.10
2022-11-18T14:57:03.612Z,14.70
2022-11-18T15:02:15.194Z,14.70
2022-11-18T15:07:23.558Z,15.10
2022-11-18T15:12:27.748Z,15.50
2022-11-18T15:17:35.639Z,15.60
2022-11-18T15:22:39.481Z,15.70
2022-11-18T15:27:43.036Z,15.70
2022-11-18T15:32:47.941Z,15.60
2022-11-18T15:37:51.583Z,15.60
2022-11-18T15:42:55.662Z,15.50
2022-11-18T15:48:00.621Z,15.20
2022-11-18T15:53:04.199Z,15.00
2022-11-18T15:58:07.907Z,14.90
2022-11-18T16:03:12.870Z,14.70
2022-11-18T16:08:16.407Z,14.70
2022-11-18T16:13:22.347Z,14.60
2022-11-18T16:18:27.237Z,14.50
2022-11-18T16:23:30.812Z,14.40
2022-11-18T16:28:34.426Z,14.30
2022-11-18T16:33:39.352Z,14.20
2022-11-18T16:38:43.065Z,14.10
2022-11-18T16:43:49.577Z,13.90
2022-11-18T16:48:55.050Z,13.70
2022-11-18T16:54:00.170Z,13.50
2022-11-18T16:59:05.884Z,13.30
2022-11-18T17:04:12.074Z,13.10
2022-11-18T17:09:17.893Z,12.90
2022-11-18T17:14:22.023Z,12.70
2022-11-18T17:19:26.944Z,12.60
2022-11-18T17:24:30.489Z,12.50
2022-11-18T17:29:34.668Z,12.40
2022-11-18T17:34:39.686Z,12.30
2022-11-18T17:39:43.270Z,12.20
2022-11-18T17:44:46.881Z,12.10
2022-11-18T17:49:52.192Z,12.00
2022-11-18T17:54:55.723Z,11.90
2022-11-18T17:59:59.310Z,11.80
2022-11-18T18:05:04.576Z,11.80
2022-11-18T18:10:08.621Z,11.70
2022-11-18T18:15:12.321Z,11.60
2022-11-18T18:20:17.512Z,11.60
2022-11-18T18:25:21.173Z,11.50
2022-11-18T18:30:24.742Z,11.50
2022-11-18T18:35:29.698Z,11.40
2022-11-18T18:40:33.846Z,11.40
2022-11-18T18:45:54.828Z,11.30
2022-11-18T18:51:05.691Z,11.20
2022-11-18T18:56:09.665Z,11.10
2022-11-18T19:01:15.632Z,11.10
2022-11-18T19:12:07.073Z,11.00
2022-11-18T19:17:12.673Z,11.00
2022-11-18T19:22:18.178Z,10.80
2022-11-18T19:27:21.991Z,10.60
2022-11-18T19:32:25.590Z,10.60
2022-11-18T19:37:32.054Z,10.70
2022-11-18T19:42:36.798Z,10.70
2022-11-18T19:47:40.603Z,10.70
2022-11-18T19:52:48.784Z,10.60
2022-11-18T19:57:52.483Z,10.60
2022-11-18T20:02:56.034Z,10.50
2022-11-18T20:08:00.922Z,10.50
2022-11-18T20:13:04.557Z,10.40
2022-11-18T20:18:08.144Z,10.30
2022-11-18T20:23:13.217Z,10.20
2022-11-18T20:28:17.192Z,10.20
2022-11-18T20:33:20.833Z,10.10
2022-11-18T20:38:25.700Z,10.00
2022-11-18T20:43:29.408Z,9.90
2022-11-18T20:48:33.073Z,9.80
2022-11-18T20:53:39.723Z,9.80
2022-11-18T20:58:43.573Z,9.80
2022-11-18T21:03:52.642Z,9.70
2022-11-18T21:08:58.833Z,9.70
2022-11-18T21:14:24.602Z,9.70
2022-11-18T21:19:29.788Z,9.70
2022-11-18T21:24:35.354Z,9.60
2022-11-18T21:29:39.396Z,9.50
2022-11-18T21:34:42.938Z,9.40
2022-11-18T21:39:47.910Z,9.30
2022-11-18T21:44:51.429Z,9.30
2022-11-18T21:49:55.011Z,9.20
2022-11-18T21:55:01.493Z,9.20
2022-11-18T22:00:07.796Z,9.20
2022-11-18T22:05:15.386Z,9.20
2022-11-18T22:10:20.409Z,9.10
2022-11-18T22:15:24.716Z,9.10
2022-11-18T22:20:28.277Z,9.10
2022-11-18T22:25:33.394Z,8.90
2022-11-18T22:30:36.993Z,8.90
2022-11-18T22:35:40.746Z,8.80
2022-11-18T22:40:45.869Z,8.70
2022-11-18T22:45:49.445Z,8.60
2022-11-18T22:50:57.961Z,8.60
2022-11-18T22:56:08.192Z,8.50
2022-11-18T23:01:14.073Z,8.50
2022-11-18T23:06:17.764Z,8.40
2022-11-18T23:11:36.566Z,8.40
2022-11-18T23:16:41.720Z,8.40
2022-11-18T23:21:46.121Z,8.30
2022-11-18T23:26:51.263Z,8.30
